Weather at Ust-Kamennogorsk Airport

Public forecast

Using degrees Celsius for public forecast. Weather courtesy of forecast.io.

Current aviation weather report (METAR) for Ust-Kamennogorsk Airport

Retrieved 2021/04/13 19:00 UTC (31 minutes ago):

UASK 131900Z 33005MPS 9999 NSC 02/M02 Q1031 R30/CLRD60 NOSIG RMK QFE748/0997

Aviation forecast (TAF) for Ust-Kamennogorsk Airport

Forecast is more than 12 hours old.

Retrieved 2014/11/02 12:00 UTC (6 years ago):

TAF UASK 021102Z 0212/0221 12005MPS 9999 SCT100 TEMPO 0215/0221 3100 BR FU FEW006